This is the latest recevied weather packets stored in our database for station/object IW1AXR-3. If no packets are shown the sender has not sent any weather packets the latest 10 day(s).
| Time | Temp. | Humidity | Pressure | Rain* | Wind** | Luminosity | Snow |
|---|---|---|---|---|---|---|---|
| 1777726917 | 20.56° C | 45% | 1021.3 hPa | - | - | - | - |
| 1777725710 | 21.67° C | 45% | 1021.5 hPa | - | - | - | - |
| 1777724502 | 20.56° C | 49% | 1021.8 hPa | - | - | - | - |
| 1777722692 | 20° C | 49% | 1022.2 hPa | - | - | - | - |
| 1777722089 | 21.67° C | 46% | 1022.5 hPa | - | - | - | - |
| 1777721485 | 20.56° C | 47% | 1022.5 hPa | - | - | - | - |
| 1777717240 | 20° C | 49% | 1023.4 hPa | - | - | - | - |
| 1777715412 | 19.44° C | 49% | 1023.8 hPa | - | - | - | - |
| 1777709976 | 17.78° C | 54% | 1024.5 hPa | - | - | - | - |
| 1777709939 | 17.78° C | 54% | 1024.5 hPa | - | - | - | - |
| 1777707502 | 16.11° C | 61% | 1024.7 hPa | - | - | - | - |
| 1777705071 | 12.22° C | 80% | 1024.9 hPa | - | - | - | - |
| 1777704463 | 9.44° C | 86% | 1024.8 hPa | - | - | - | - |
| 1777701423 | 5.56° C | 97% | 1024.8 hPa | - | - | - | - |
| 1777699594 | 5° C | 98% | 1024.8 hPa | - | - | - | - |
| 1777697156 | 5° C | 96% | 1024.5 hPa | - | - | - | - |
| 1777694089 | 4.44° C | 92% | 1024.3 hPa | - | - | - | - |
| 1777689803 | 6.11° C | 85% | 1024.3 hPa | - | - | - | - |
| 1777688573 | 6.67° C | 80% | 1024.3 hPa | - | - | - | - |
| 1777685508 | 5.56° C | 94% | 1024.3 hPa | - | - | - | - |
| 1777684300 | 5° C | 91% | 1024.3 hPa | - | - | - | - |
| 1777683092 | 5.56° C | 88% | 1024.2 hPa | - | - | - | - |
| 1777681885 | 6.11° C | 81% | 1024.3 hPa | - | - | - | - |
| 1777680679 | 7.22° C | 77% | 1024.3 hPa | - | - | - | - |
| 1777680074 | 7.22° C | 73% | 1024.4 hPa | - | - | - | - |
* Rain since midnight (hover to see other rain measurements)
** Current wind speed in m/s (hover to see current wind gust speed)